Time;durP1;ratioP1;P1;durP2;ratioP2;P2;SDS_P1;SDS_P2;PMS_P1;PMS_P2;Temp;Humidity;BMP_temperature;BMP_pressure;BME280_temperature;BME280_humidity;BME280_pressure;Samples;Min_cycle;Max_cycle;Signal;HPM_P1;HPM_P2
2023/05/05 03:01:09;;;;;;;13.32;6.63;;;13.00;99.90;;;;;;5783638;23;20047;-82
2023/05/05 03:03:39;;;;;;;15.27;6.60;;;13.00;99.90;;;;;;4960144;28;20051;-82
2023/05/05 03:06:18;;;;;;;13.90;6.22;;;13.00;99.90;;;;;;4961069;28;20049;-82
2023/05/05 03:08:59;;;;;;;11.90;7.75;;;13.00;99.90;;;;;;4977820;28;20081;-83
2023/05/05 03:11:31;;;;;;;12.90;6.65;;;13.00;99.90;;;;;;4960479;28;20439;-83
2023/05/05 03:14:12;;;;;;;13.88;7.60;;;13.00;99.90;;;;;;4960419;28;20050;-82
2023/05/05 03:16:40;;;;;;;17.63;7.68;;;13.00;99.90;;;;;;4978319;28;20039;-82
2023/05/05 03:19:09;;;;;;;14.07;7.97;;;12.90;99.90;;;;;;4949388;29;20047;-83
2023/05/05 03:21:35;;;;;;;18.33;8.13;;;13.00;99.90;;;;;;4941225;29;20122;-83
2023/05/05 03:24:14;;;;;;;16.20;8.30;;;12.90;99.90;;;;;;4958606;29;20067;-81
2023/05/05 03:26:41;;;;;;;16.80;9.88;;;12.90;99.90;;;;;;4941066;29;20047;-82
2023/05/05 03:29:06;;;;;;;14.57;8.80;;;12.80;99.90;;;;;;4941285;29;20050;-82
2023/05/05 03:31:32;;;;;;;14.90;9.63;;;12.70;99.90;;;;;;4940671;29;20043;-82
2023/05/05 03:33:58;;;;;;;20.58;9.93;;;12.70;99.90;;;;;;4957950;28;20035;-83
2023/05/05 03:36:24;;;;;;;16.55;10.55;;;12.60;99.90;;;;;;4958024;29;20090;-82
2023/05/05 03:38:49;;;;;;;16.02;9.82;;;12.50;99.90;;;;;;4945715;28;20046;-82
2023/05/05 03:41:15;;;;;;;18.67;10.07;;;12.40;99.90;;;;;;4959795;28;20043;-82
2023/05/05 03:43:41;;;;;;;17.83;10.52;;;12.40;99.90;;;;;;4976674;28;20050;-84
2023/05/05 03:46:07;;;;;;;17.23;10.73;;;12.30;99.90;;;;;;4956687;28;20530;-81
2023/05/05 03:48:33;;;;;;;16.05;9.90;;;12.30;99.90;;;;;;4943240;28;20125;-81
2023/05/05 03:50:59;;;;;;;19.15;11.80;;;12.20;99.90;;;;;;4959886;28;20432;-81
2023/05/05 03:53:24;;;;;;;19.75;12.07;;;12.20;99.90;;;;;;4977679;28;20134;-83
2023/05/05 03:55:51;;;;;;;18.08;10.85;;;12.20;99.90;;;;;;4977637;28;20074;-81
2023/05/05 03:58:17;;;;;;;21.08;11.68;;;12.20;99.90;;;;;;4977261;28;20090;-81
2023/05/05 04:00:43;;;;;;;17.63;11.48;;;12.20;99.90;;;;;;4977154;28;20039;-83
2023/05/05 04:03:09;;;;;;;25.95;12.40;;;12.20;99.90;;;;;;4959555;28;20475;-83
2023/05/05 04:05:35;;;;;;;17.38;12.07;;;12.20;99.90;;;;;;4960040;28;20438;-82
2023/05/05 04:08:02;;;;;;;20.08;12.93;;;12.20;99.90;;;;;;4959090;28;20126;-82
2023/05/05 04:10:31;;;;;;;17.00;12.10;;;12.10;99.90;;;;;;4963500;28;20407;-84
2023/05/05 04:12:56;;;;;;;18.30;12.27;;;12.10;99.90;;;;;;4940784;29;20174;-82
2023/05/05 04:15:22;;;;;;;24.23;12.73;;;12.10;99.90;;;;;;4952661;28;20090;-83
2023/05/05 04:17:48;;;;;;;21.40;12.57;;;12.00;99.90;;;;;;4959870;28;20442;-84
2023/05/05 04:20:14;;;;;;;16.35;12.02;;;12.00;99.90;;;;;;4976522;28;20050;-81
2023/05/05 04:22:40;;;;;;;22.23;11.15;;;12.00;99.90;;;;;;4976935;28;20053;-84
2023/05/05 04:25:06;;;;;;;17.90;11.43;;;12.00;99.90;;;;;;4976873;28;20057;-81
2023/05/05 04:27:32;;;;;;;23.52;11.52;;;12.00;99.90;;;;;;4957779;28;20042;-82
2023/05/05 04:29:57;;;;;;;16.95;11.35;;;12.00;99.90;;;;;;4958505;28;20057;-80
2023/05/05 04:32:25;;;;;;;19.80;12.43;;;12.00;99.90;;;;;;4975965;28;20085;-85
2023/05/05 04:34:51;;;;;;;16.80;11.77;;;12.00;99.90;;;;;;4959230;28;20054;-86
2023/05/05 04:37:19;;;;;;;18.45;11.93;;;12.00;99.90;;;;;;4959728;28;20047;-84
2023/05/05 04:39:45;;;;;;;19.48;12.40;;;12.00;99.90;;;;;;4959317;28;20074;-83
2023/05/05 04:42:11;;;;;;;15.15;11.27;;;11.90;99.90;;;;;;4943381;28;20049;-83
2023/05/05 04:44:36;;;;;;;19.73;12.10;;;11.90;99.90;;;;;;4958984;28;20046;-83
2023/05/05 04:47:02;;;;;;;15.43;11.50;;;11.90;99.90;;;;;;4959267;28;20038;-82
2023/05/05 04:49:36;;;;;;;;;;;11.90;99.90;;;;;;5092959;28;20386;-83
2023/05/05 04:52:02;;;;;;;19.55;11.40;;;11.90;99.90;;;;;;5091749;28;19916;-84
2023/05/05 04:54:27;;;;;;;16.83;12.30;;;11.90;99.90;;;;;;5074656;28;20441;-85
2023/05/05 04:56:53;;;;;;;20.73;12.35;;;11.90;99.90;;;;;;5073821;28;20078;-84
2023/05/05 04:59:19;;;;;;;21.35;12.73;;;11.90;99.90;;;;;;5090914;28;20095;-85
2023/05/05 05:01:47;;;;;;;21.30;13.27;;;12.00;99.90;;;;;;5090143;28;20048;-83
2023/05/05 05:04:17;;;;;;;18.15;11.82;;;12.00;99.90;;;;;;5090532;28;20044;-84
2023/05/05 05:06:43;;;;;;;17.70;12.00;;;12.00;99.90;;;;;;5091721;28;20040;-83
2023/05/05 05:09:09;;;;;;;23.48;12.00;;;12.00;99.90;;;;;;5092188;28;20041;-82
2023/05/05 05:11:34;;;;;;;17.20;11.20;;;12.10;99.90;;;;;;5073275;28;20376;-84
2023/05/05 05:14:00;;;;;;;18.10;12.38;;;12.10;99.90;;;;;;5090197;28;20040;-84
2023/05/05 05:16:25;;;;;;;21.85;12.02;;;12.10;99.90;;;;;;5091367;28;20028;-83
2023/05/05 05:18:51;;;;;;;22.45;12.48;;;12.20;99.90;;;;;;5090514;28;20044;-83
2023/05/05 05:21:17;;;;;;;18.38;12.40;;;12.20;99.90;;;;;;5091015;28;20050;-83
2023/05/05 05:23:42;;;;;;;17.75;10.82;;;12.10;99.90;;;;;;5090274;28;20033;-83
2023/05/05 05:26:08;;;;;;;22.17;12.18;;;12.20;99.90;;;;;;5089417;28;20064;-82
2023/05/05 05:28:34;;;;;;;27.33;12.15;;;12.20;99.90;;;;;;5089607;28;20044;-83
2023/05/05 05:31:03;;;;;;;21.35;12.45;;;12.20;99.90;;;;;;5089373;28;20046;-83
2023/05/05 05:33:29;;;;;;;19.10;12.23;;;12.20;99.90;;;;;;5089632;28;20074;-82
2023/05/05 05:35:55;;;;;;;19.85;12.60;;;12.20;99.90;;;;;;5089868;28;20040;-84
2023/05/05 05:38:20;;;;;;;16.38;12.02;;;12.20;99.90;;;;;;5091304;28;20040;-82
2023/05/05 05:40:46;;;;;;;16.80;12.60;;;12.30;99.90;;;;;;5089830;28;20044;-83
2023/05/05 05:43:12;;;;;;;19.88;12.43;;;12.20;99.90;;;;;;5089652;28;20048;-83
2023/05/05 05:45:37;;;;;;;21.42;12.88;;;12.30;99.90;;;;;;5089355;28;20170;-83
2023/05/05 05:48:03;;;;;;;16.83;12.30;;;12.30;99.90;;;;;;5085644;28;20190;-84
2023/05/05 05:50:30;;;;;;;19.05;12.00;;;12.30;99.90;;;;;;5069069;28;20126;-83
2023/05/05 05:52:56;;;;;;;18.00;11.73;;;12.30;99.90;;;;;;5070635;28;20059;-84
2023/05/05 05:55:21;;;;;;;17.75;11.93;;;12.30;99.90;;;;;;5052716;28;20476;-83
2023/05/05 05:57:47;;;;;;;21.45;12.57;;;12.30;99.90;;;;;;5071006;28;20053;-84
2023/05/05 06:00:14;;;;;;;19.60;12.40;;;12.30;99.90;;;;;;5060317;28;20381;-83
2023/05/05 06:02:40;;;;;;;20.45;13.05;;;12.20;99.90;;;;;;5057438;28;20049;-83
2023/05/05 06:05:06;;;;;;;21.00;13.48;;;12.30;99.90;;;;;;5056104;28;20046;-83
2023/05/05 06:07:32;;;;;;;24.00;13.75;;;12.30;99.90;;;;;;5056050;28;20053;-84
2023/05/05 06:09:57;;;;;;;19.20;13.55;;;12.30;99.90;;;;;;5056502;28;20045;-85
2023/05/05 06:12:23;;;;;;;18.55;12.77;;;12.30;99.90;;;;;;5055886;28;20044;-83
2023/05/05 06:14:49;;;;;;;18.33;12.07;;;12.30;99.90;;;;;;5056087;28;20048;-85
2023/05/05 06:17:14;;;;;;;20.90;14.35;;;12.30;99.90;;;;;;5055595;28;20060;-83
2023/05/05 06:19:40;;;;;;;22.98;14.10;;;12.30;99.90;;;;;;5056670;28;20037;-85
2023/05/05 06:22:06;;;;;;;21.05;13.68;;;12.30;99.90;;;;;;5054807;28;20120;-81
2023/05/05 06:24:32;;;;;;;23.85;13.10;;;12.40;99.90;;;;;;5067356;28;20060;-85
2023/05/05 06:27:01;;;;;;;18.05;12.85;;;12.40;99.90;;;;;;5075775;28;20044;-82
2023/05/05 06:29:27;;;;;;;22.65;13.48;;;12.40;99.90;;;;;;5074675;28;20055;-80
2023/05/05 06:31:53;;;;;;;20.77;13.30;;;12.50;99.90;;;;;;5058514;28;20037;-83
2023/05/05 06:34:19;;;;;;;20.23;13.60;;;12.50;99.90;;;;;;5076402;28;20044;-80
2023/05/05 06:36:45;;;;;;;25.20;14.60;;;12.50;99.90;;;;;;5076743;28;20107;-77
2023/05/05 06:39:10;;;;;;;21.20;13.88;;;12.60;99.90;;;;;;5074791;28;20126;-79
2023/05/05 06:41:36;;;;;;;20.35;13.23;;;12.60;99.90;;;;;;5067802;28;20040;-78
2023/05/05 06:44:02;;;;;;;21.60;13.75;;;12.60;99.90;;;;;;5080609;28;20051;-78
2023/05/05 06:46:28;;;;;;;19.73;13.73;;;12.70;99.90;;;;;;5074862;28;20410;-79
2023/05/05 06:48:54;;;;;;;23.60;13.88;;;12.70;99.90;;;;;;5076178;28;20044;-81
2023/05/05 06:51:19;;;;;;;21.33;13.77;;;12.80;99.90;;;;;;5075875;28;20033;-80
2023/05/05 06:53:45;;;;;;;22.42;14.40;;;12.90;99.90;;;;;;5056571;28;20037;-82
2023/05/05 06:56:11;;;;;;;20.40;13.75;;;12.90;99.90;;;;;;5059443;28;20115;-80
2023/05/05 06:58:36;;;;;;;24.35;14.45;;;13.00;99.90;;;;;;5074533;28;20070;-82
2023/05/05 07:01:02;;;;;;;21.95;13.55;;;13.00;99.90;;;;;;5073988;28;20076;-81
2023/05/05 07:03:28;;;;;;;20.48;14.15;;;13.10;99.90;;;;;;5075241;28;20052;-79
2023/05/05 07:05:54;;;;;;;18.65;13.00;;;13.10;99.90;;;;;;5067978;28;20052;-82
2023/05/05 07:08:20;;;;;;;23.95;14.23;;;13.20;99.90;;;;;;5055649;28;20041;-78
2023/05/05 07:10:46;;;;;;;20.17;14.07;;;13.20;99.90;;;;;;5053772;28;20037;-79
2023/05/05 07:13:13;;;;;;;23.73;14.27;;;13.30;99.90;;;;;;5055561;28;20119;-80
2023/05/05 07:15:45;;;;;;;19.50;13.43;;;13.30;99.90;;;;;;5056141;28;20032;-80
2023/05/05 07:18:15;;;;;;;21.85;14.10;;;13.40;99.90;;;;;;5055710;28;20094;-79
2023/05/05 07:20:41;;;;;;;21.27;14.43;;;13.50;99.90;;;;;;5062935;28;20052;-80
2023/05/05 07:23:07;;;;;;;24.15;14.95;;;13.60;99.90;;;;;;5073919;28;20052;-80
2023/05/05 07:25:33;;;;;;;21.92;14.25;;;13.70;99.90;;;;;;5056649;28;20066;-81
2023/05/05 07:27:58;;;;;;;20.58;13.77;;;13.80;99.90;;;;;;5073690;28;20076;-80
2023/05/05 07:30:25;;;;;;;22.63;14.63;;;13.80;99.90;;;;;;5074013;28;20055;-80
2023/05/05 07:32:51;;;;;;;22.80;14.63;;;14.00;99.90;;;;;;5079131;28;20079;-81
2023/05/05 07:35:17;;;;;;;22.45;14.13;;;14.20;99.90;;;;;;5079699;28;20036;-83
2023/05/05 07:37:45;;;;;;;24.15;14.70;;;14.30;99.90;;;;;;5077952;28;20120;-79
2023/05/05 07:40:12;;;;;;;26.75;15.95;;;14.50;99.90;;;;;;5073410;28;20040;-80
2023/05/05 07:42:37;;;;;;;20.60;13.73;;;14.60;99.90;;;;;;5060040;28;20514;-81
2023/05/05 07:45:04;;;;;;;20.52;13.50;;;14.70;99.90;;;;;;5072542;28;20090;-80
2023/05/05 07:47:30;;;;;;;24.15;14.32;;;14.80;99.90;;;;;;5073461;28;20527;-79
2023/05/05 07:49:56;;;;;;;25.45;14.55;;;14.90;99.90;;;;;;5053853;28;20116;-78
2023/05/05 07:52:22;;;;;;;22.65;14.10;;;15.10;99.90;;;;;;5065000;28;20373;-81
2023/05/05 07:54:48;;;;;;;23.50;15.48;;;15.10;99.90;;;;;;5055910;28;20440;-82
2023/05/05 07:57:14;;;;;;;28.90;15.77;;;15.30;99.90;;;;;;5055306;28;20048;-80
2023/05/05 07:59:42;;;;;;;23.45;14.40;;;15.40;99.90;;;;;;5054887;28;20069;-81
2023/05/05 08:02:11;;;;;;;26.08;16.05;;;15.50;99.90;;;;;;5054428;28;20052;-81
2023/05/05 08:04:40;;;;;;;26.23;16.33;;;15.60;99.90;;;;;;5070731;28;20044;-81
2023/05/05 08:07:08;;;;;;;24.75;16.02;;;15.70;99.90;;;;;;5076169;28;20040;-83
2023/05/05 08:09:35;;;;;;;24.08;16.73;;;15.80;99.90;;;;;;5076551;28;20032;-81
2023/05/05 08:12:01;;;;;;;25.60;16.50;;;15.80;99.90;;;;;;5076500;28;20032;-82
2023/05/05 08:14:28;;;;;;;26.88;16.55;;;15.90;99.90;;;;;;5074285;28;20106;-83
2023/05/05 08:16:54;;;;;;;26.70;16.38;;;15.90;99.90;;;;;;5063717;28;20045;-82
2023/05/05 08:19:19;;;;;;;31.98;17.05;;;16.00;99.90;;;;;;5065459;28;20048;-84
2023/05/05 08:21:45;;;;;;;35.97;17.50;;;16.00;99.90;;;;;;5072184;28;20067;-82
2023/05/05 08:24:11;;;;;;;25.08;16.17;;;16.20;99.90;;;;;;5071801;28;20046;-81
2023/05/05 08:26:36;;;;;;;27.10;16.70;;;16.50;99.90;;;;;;5055978;28;20499;-80
2023/05/05 08:29:02;;;;;;;23.27;16.58;;;16.50;99.90;;;;;;5061635;28;20437;-80
2023/05/05 08:31:32;;;;;;;25.42;15.70;;;16.50;99.90;;;;;;5052110;28;20488;-80
2023/05/05 08:33:58;;;;;;;23.92;16.52;;;16.50;99.90;;;;;;5053339;28;20036;-83
2023/05/05 08:36:24;;;;;;;23.63;16.23;;;16.50;99.90;;;;;;5052867;28;20500;-84
2023/05/05 08:38:50;;;;;;;24.90;16.40;;;16.50;99.90;;;;;;5053149;28;20037;-83
2023/05/05 08:41:18;;;;;;;26.05;16.83;;;16.50;99.90;;;;;;5057269;28;20041;-82
2023/05/05 08:43:46;;;;;;;27.55;16.95;;;16.60;99.90;;;;;;5042490;28;20044;-80
2023/05/05 08:46:12;;;;;;;22.67;13.43;;;16.70;99.90;;;;;;5073866;28;20064;-83
2023/05/05 08:48:42;;;;;;;23.73;15.98;;;16.70;99.90;;;;;;5071847;28;20086;-79
2023/05/05 08:51:12;;;;;;;21.35;14.98;;;16.70;99.90;;;;;;5071728;28;20045;-81
2023/05/05 08:53:53;;;;;;;55.78;18.30;;;16.70;99.90;;;;;;5055287;28;20040;-81
2023/05/05 08:56:22;;;;;;;19.45;13.95;;;16.80;99.90;;;;;;5067637;28;20033;-81
2023/05/05 08:58:50;;;;;;;28.50;15.68;;;16.90;99.90;;;;;;5051846;28;20090;-81
2023/05/05 09:01:16;;;;;;;28.92;17.27;;;17.00;99.90;;;;;;5051992;28;20392;-81
2023/05/05 09:03:46;;;;;;;23.60;14.25;;;17.10;99.90;;;;;;5057992;28;20042;-81
2023/05/05 09:06:11;;;;;;;21.17;13.65;;;17.30;99.90;;;;;;5072039;28;20040;-80
2023/05/05 09:08:37;;;;;;;26.75;15.00;;;17.30;99.90;;;;;;5073021;28;20438;-81
2023/05/05 09:11:03;;;;;;;22.05;14.80;;;17.40;99.90;;;;;;5070224;28;20044;-80
2023/05/05 09:13:30;;;;;;;24.73;14.68;;;17.60;99.90;;;;;;5069287;28;20040;-80
2023/05/05 09:15:59;;;;;;;23.55;15.18;;;17.80;99.90;;;;;;5051487;28;20115;-80
2023/05/05 09:18:25;;;;;;;22.80;13.85;;;17.90;99.90;;;;;;5052676;28;20041;-80
2023/05/05 09:20:51;;;;;;;17.33;11.48;;;17.90;99.90;;;;;;5062577;28;20037;-81
2023/05/05 09:23:18;;;;;;;16.90;9.82;;;17.90;99.90;;;;;;5071676;28;20037;-82
2023/05/05 09:25:46;;;;;;;18.33;11.10;;;17.90;99.90;;;;;;5071669;28;20048;-82
2023/05/05 09:28:17;;;;;;;19.75;11.32;;;18.00;99.90;;;;;;5072682;28;20041;-83
2023/05/05 09:30:45;;;;;;;17.27;10.65;;;18.20;99.90;;;;;;5071309;28;20375;-82
2023/05/05 09:33:12;;;;;;;17.38;10.82;;;18.20;99.90;;;;;;5069416;28;20036;-83
2023/05/05 09:35:52;;;;;;;17.08;11.02;;;18.30;99.90;;;;;;5073624;28;20045;-84
2023/05/05 09:38:18;;;;;;;21.30;10.35;;;18.50;99.90;;;;;;5066630;28;20060;-80
2023/05/05 09:40:48;;;;;;;14.80;8.88;;;18.60;99.90;;;;;;5055009;28;20086;-82
2023/05/05 09:43:16;;;;;;;15.73;10.23;;;18.80;99.90;;;;;;5057032;28;20040;-81
2023/05/05 09:45:42;;;;;;;15.10;9.70;;;18.80;99.90;;;;;;5075014;28;20048;-82
2023/05/05 09:48:25;;;;;;;13.65;8.50;;;18.70;99.90;;;;;;5074783;28;20051;-82
2023/05/05 09:50:52;;;;;;;14.65;8.73;;;18.50;99.90;;;;;;5074725;28;20158;-83
2023/05/05 09:53:18;;;;;;;10.90;7.60;;;18.50;99.90;;;;;;5058541;28;20048;-81
2023/05/05 09:55:53;;;;;;;12.45;7.85;;;18.60;99.90;;;;;;5078058;28;20041;-82
2023/05/05 09:58:23;;;;;;;15.27;9.68;;;18.70;99.90;;;;;;5077761;28;20109;-82
2023/05/05 10:00:50;;;;;;;15.32;9.50;;;18.80;99.90;;;;;;5075353;28;20502;-83
2023/05/05 10:03:16;;;;;;;21.92;9.68;;;18.90;99.90;;;;;;5079240;28;20459;-83
2023/05/05 10:05:53;;;;;;;16.60;9.27;;;19.00;99.90;;;;;;5078452;28;20041;-82
2023/05/05 10:08:21;;;;;;;9.85;6.10;;;18.80;99.90;;;;;;5075783;28;20106;-83
2023/05/05 10:10:59;;;;;;;10.35;4.68;;;18.80;99.90;;;;;;5075984;28;20041;-82
2023/05/05 10:13:26;;;;;;;8.77;4.68;;;18.60;99.90;;;;;;5058444;28;20484;-82
2023/05/05 10:15:54;;;;;;;9.63;5.50;;;18.50;99.90;;;;;;5074507;28;20037;-81
2023/05/05 10:18:26;;;;;;;11.32;5.93;;;18.60;99.90;;;;;;5074576;28;20044;-82
2023/05/05 10:20:58;;;;;;;11.13;5.50;;;18.50;99.90;;;;;;5075491;28;20055;-84
2023/05/05 10:23:47;;;;;;;11.32;5.80;;;18.60;99.90;;;;;;5074529;28;20102;-80
2023/05/05 10:26:15;;;;;;;12.00;6.40;;;18.70;99.90;;;;;;5071562;28;20049;-82
2023/05/05 10:28:54;;;;;;;11.15;6.15;;;18.80;99.90;;;;;;5056964;28;20464;-83
2023/05/05 10:31:28;;;;;;;11.60;6.60;;;18.90;99.90;;;;;;5072957;28;20043;-82
2023/05/05 10:34:02;;;;;;;10.45;6.43;;;18.90;99.90;;;;;;5064887;28;20040;-82
2023/05/05 10:36:30;;;;;;;12.15;6.00;;;19.10;99.90;;;;;;5056928;28;20098;-81
2023/05/05 10:39:05;;;;;;;12.98;6.20;;;19.20;99.90;;;;;;5074276;28;20138;-87
2023/05/05 10:41:32;;;;;;;9.95;5.80;;;19.20;99.90;;;;;;5075833;28;20040;-79
2023/05/05 10:43:58;;;;;;;10.88;5.68;;;19.30;99.90;;;;;;5075562;28;20055;-81
2023/05/05 10:46:26;;;;;;;12.88;7.18;;;19.50;99.90;;;;;;5073820;28;20385;-81
2023/05/05 10:49:23;;;;;;;12.88;7.65;;;19.70;99.90;;;;;;5073525;28;20119;-78
2023/05/05 10:51:59;;;;;;;15.40;6.47;;;19.70;99.90;;;;;;5075170;28;20041;-79
2023/05/05 10:54:41;;;;;;;10.20;5.13;;;19.90;99.90;;;;;;5073878;28;20093;-82
2023/05/05 10:57:09;;;;;;;8.38;4.80;;;20.00;99.90;;;;;;5074430;28;20049;-79
2023/05/05 10:59:35;;;;;;;9.63;5.10;;;20.20;99.90;;;;;;5073831;28;20044;-81
2023/05/05 11:02:20;;;;;;;9.57;4.25;;;20.20;99.90;;;;;;5073697;28;20048;-81
2023/05/05 11:05:05;;;;;;;9.03;4.13;;;20.20;99.90;;;;;;5073694;28;20076;-83
2023/05/05 11:07:33;;;;;;;8.37;3.53;;;20.20;99.90;;;;;;5074613;28;20123;-79
2023/05/05 11:10:25;;;;;;;10.02;4.80;;;20.10;99.90;;;;;;5075226;28;20313;-79
2023/05/05 11:12:50;;;;;;;8.07;4.35;;;20.20;99.90;;;;;;5052869;28;20140;-78
2023/05/05 11:15:25;;;;;;;5.57;2.63;;;20.00;99.90;;;;;;5052857;28;20041;-82
2023/05/05 11:17:51;;;;;;;6.87;2.80;;;19.90;99.90;;;;;;5052806;28;20052;-81
2023/05/05 11:20:38;;;;;;;6.05;2.80;;;19.70;99.90;;;;;;5051880;28;20746;-82
2023/05/05 11:23:07;;;;;;;4.80;1.70;;;19.50;99.90;;;;;;5037097;28;20057;-79
2023/05/05 11:25:35;;;;;;;4.40;2.30;;;19.40;99.90;;;;;;5037930;28;20055;-82
2023/05/05 11:28:09;;;;;;;5.25;2.90;;;19.40;99.90;;;;;;5038039;28;20088;-81
2023/05/05 11:30:55;;;;;;;6.70;2.60;;;19.20;99.90;;;;;;5038217;28;20060;-79
2023/05/05 11:33:37;;;;;;;;;;;19.10;99.90;;;;;;5038839;28;20128;-82
2023/05/05 11:36:16;;;;;;;4.88;2.15;;;19.00;99.90;;;;;;5053795;28;19920;-80
2023/05/05 11:39:10;;;;;;;9.45;2.80;;;19.00;99.90;;;;;;5070084;28;20032;-82
2023/05/05 11:42:05;;;;;;;8.73;3.70;;;18.80;99.90;;;;;;5074142;28;20071;-79
2023/05/05 11:44:32;;;;;;;8.45;4.45;;;18.60;99.90;;;;;;5072844;28;20072;-80
2023/05/05 11:47:01;;;;;;;8.30;4.28;;;18.60;99.90;;;;;;5073053;28;20041;-80
2023/05/05 11:49:34;;;;;;;8.52;4.90;;;18.40;99.90;;;;;;5057074;28;20040;-79
2023/05/05 11:52:01;;;;;;;7.68;4.93;;;18.40;99.90;;;;;;5074045;28;20135;-79
2023/05/05 11:54:27;;;;;;;10.40;4.60;;;18.40;99.90;;;;;;5072804;28;20041;-80
2023/05/05 11:56:58;;;;;;;5.75;3.92;;;18.30;99.90;;;;;;5056671;28;20138;-80
2023/05/05 11:59:24;;;;;;;8.65;4.05;;;18.20;99.90;;;;;;5074797;28;20071;-80
2023/05/05 12:01:50;;;;;;;8.88;4.55;;;18.10;99.90;;;;;;5074926;28;20549;-78
2023/05/05 12:04:17;;;;;;;8.55;4.70;;;18.10;99.90;;;;;;5074923;28;20040;-82
2023/05/05 12:06:44;;;;;;;7.72;4.68;;;18.10;99.90;;;;;;5074385;28;20086;-80
2023/05/05 12:09:18;;;;;;;8.48;5.00;;;17.90;99.90;;;;;;5072510;28;20495;-79
2023/05/05 12:11:55;;;;;;;7.78;4.80;;;17.80;99.90;;;;;;5072305;28;20040;-79
2023/05/05 12:14:22;;;;;;;9.27;5.50;;;17.70;99.90;;;;;;5072598;28;20040;-80
2023/05/05 12:17:09;;;;;;;9.05;5.47;;;17.50;99.90;;;;;;5073784;28;20045;-79
2023/05/05 12:19:35;;;;;;;11.18;6.60;;;17.40;99.90;;;;;;5072151;28;20051;-80
2023/05/05 12:22:02;;;;;;;13.80;6.45;;;17.30;99.90;;;;;;5055246;28;20040;-80
2023/05/05 12:24:31;;;;;;;11.55;6.97;;;17.10;99.90;;;;;;5072170;28;20048;-81
2023/05/05 12:27:06;;;;;;;15.77;7.72;;;16.80;99.90;;;;;;5072314;28;20055;-79
2023/05/05 12:29:32;;;;;;;13.85;6.82;;;16.50;99.90;;;;;;5073892;28;20120;-78
2023/05/05 12:31:59;;;;;;;12.13;5.90;;;16.20;99.90;;;;;;5072703;28;20075;-78
2023/05/05 12:34:25;;;;;;;11.25;6.38;;;15.80;99.90;;;;;;5072823;28;20048;-78
2023/05/05 12:36:52;;;;;;;12.68;6.80;;;15.50;99.90;;;;;;5074159;28;20388;-78
2023/05/05 12:39:17;;;;;;;13.15;7.18;;;15.30;99.90;;;;;;5072953;28;20055;-79
2023/05/05 12:41:43;;;;;;;17.67;9.18;;;15.10;99.90;;;;;;5075284;28;20048;-82
2023/05/05 12:44:09;;;;;;;15.27;7.40;;;15.00;99.90;;;;;;5076806;28;20052;-81
2023/05/05 12:46:45;;;;;;;13.27;6.32;;;14.80;99.90;;;;;;5076479;28;20400;-80
2023/05/05 12:49:11;;;;;;;10.77;4.78;;;14.70;99.90;;;;;;5076323;28;20079;-81
2023/05/05 12:51:38;;;;;;;11.20;5.28;;;14.60;99.90;;;;;;5074968;28;20044;-80
2023/05/05 12:54:08;;;;;;;10.95;5.03;;;14.50;99.90;;;;;;5074603;28;20079;-81
2023/05/05 12:57:09;;;;;;;10.48;3.70;;;14.50;99.90;;;;;;5074735;28;20048;-78
2023/05/05 12:59:35;;;;;;;13.07;5.78;;;14.40;99.90;;;;;;5074230;28;20488;-78
2023/05/05 13:02:01;;;;;;;15.45;6.40;;;14.30;99.90;;;;;;5074502;28;20044;-79
2023/05/05 13:04:31;;;;;;;18.50;7.53;;;14.30;99.90;;;;;;5072106;28;20055;-80
2023/05/05 13:07:13;;;;;;;19.38;8.57;;;14.30;99.90;;;;;;5073845;28;20074;-80
2023/05/05 13:09:40;;;;;;;19.50;9.80;;;14.30;99.90;;;;;;5075149;28;20088;-81
2023/05/05 13:12:07;;;;;;;20.55;9.27;;;14.30;99.90;;;;;;5078736;28;20037;-81
2023/05/05 13:14:36;;;;;;;17.60;9.00;;;14.30;99.90;;;;;;5084486;28;20438;-80
2023/05/05 13:17:01;;;;;;;16.58;9.25;;;14.30;99.90;;;;;;5079251;28;20047;-81
2023/05/05 13:19:27;;;;;;;16.33;10.15;;;14.30;99.90;;;;;;5081629;28;20044;-77
2023/05/05 13:21:55;;;;;;;18.92;9.57;;;14.20;99.90;;;;;;5075662;28;20051;-80
2023/05/05 13:24:21;;;;;;;13.57;7.57;;;14.20;99.90;;;;;;5076663;28;20043;-79
2023/05/05 13:26:48;;;;;;;15.55;7.75;;;14.10;99.90;;;;;;5076950;28;20041;-80
2023/05/05 13:29:15;;;;;;;20.48;7.72;;;14.20;99.90;;;;;;5077402;28;20094;-80
2023/05/05 13:31:41;;;;;;;16.25;7.00;;;14.20;99.90;;;;;;5076044;28;20052;-80
2023/05/05 13:34:07;;;;;;;17.48;8.07;;;14.20;99.90;;;;;;5077246;28;20036;-81
2023/05/05 13:36:33;;;;;;;14.57;6.82;;;14.10;99.90;;;;;;5075469;28;20043;-79
2023/05/05 13:38:59;;;;;;;13.90;7.28;;;14.10;99.90;;;;;;5075331;28;20080;-81
2023/05/05 13:41:25;;;;;;;12.30;5.57;;;14.10;99.90;;;;;;5075743;28;20043;-82
2023/05/05 13:43:51;;;;;;;11.77;4.93;;;14.10;99.90;;;;;;5076515;28;20049;-79
2023/05/05 13:46:17;;;;;;;11.00;4.50;;;14.10;99.90;;;;;;5076461;28;20029;-81
2023/05/05 13:48:42;;;;;;;13.27;4.70;;;14.10;99.90;;;;;;5074936;28;20083;-80
2023/05/05 13:51:11;;;;;;;10.65;4.32;;;14.10;99.90;;;;;;5076222;28;20036;-79
2023/05/05 13:53:40;;;;;;;8.75;4.25;;;14.00;99.90;;;;;;5076534;28;20391;-79
2023/05/05 13:56:06;;;;;;;9.50;3.70;;;14.00;99.90;;;;;;5073186;28;20044;-78
2023/05/05 13:58:31;;;;;;;10.23;4.40;;;14.00;99.90;;;;;;5065513;28;20037;-77
2023/05/05 14:00:57;;;;;;;9.98;4.40;;;14.00;99.90;;;;;;5074154;28;20055;-78
2023/05/05 14:03:23;;;;;;;10.52;4.80;;;13.90;99.90;;;;;;5074421;28;20044;-77
2023/05/05 14:05:49;;;;;;;9.52;4.80;;;13.90;99.90;;;;;;5075350;28;20119;-77
2023/05/05 14:08:17;;;;;;;11.95;5.65;;;13.80;99.90;;;;;;5058631;28;20044;-77
2023/05/05 14:10:43;;;;;;;8.88;5.22;;;13.80;99.90;;;;;;5075048;28;20036;-78
2023/05/05 14:13:09;;;;;;;10.82;4.82;;;13.80;99.90;;;;;;5076557;28;20060;-77
2023/05/05 14:15:35;;;;;;;10.30;4.75;;;13.80;99.90;;;;;;5074773;28;20054;-76
2023/05/05 14:18:11;;;;;;;10.10;5.10;;;13.70;99.90;;;;;;5074887;28;20083;-78
2023/05/05 14:20:37;;;;;;;8.65;4.75;;;13.70;99.90;;;;;;5056595;28;20071;-78
2023/05/05 14:23:03;;;;;;;8.77;5.13;;;13.70;99.90;;;;;;5074784;28;20488;-78
2023/05/05 14:25:38;;;;;;;10.05;5.38;;;13.70;99.90;;;;;;5076202;28;20044;-78
2023/05/05 14:28:04;;;;;;;13.68;6.07;;;13.70;99.90;;;;;;5074227;28;20045;-78
2023/05/05 14:30:30;;;;;;;9.73;5.18;;;13.70;99.90;;;;;;5074727;28;20392;-78
2023/05/05 14:32:55;;;;;;;9.05;4.90;;;13.60;99.90;;;;;;5074431;28;20045;-78
2023/05/05 14:35:21;;;;;;;9.68;4.88;;;13.60;99.90;;;;;;5074911;28;20040;-78
2023/05/05 14:37:47;;;;;;;8.82;4.78;;;13.60;99.90;;;;;;5074388;28;20052;-78
2023/05/05 14:40:12;;;;;;;12.73;4.32;;;13.60;99.90;;;;;;5073814;28;20376;-78
2023/05/05 14:42:38;;;;;;;9.73;4.75;;;13.60;99.90;;;;;;5073373;28;20045;-79
2023/05/05 14:45:05;;;;;;;14.73;5.30;;;13.50;99.90;;;;;;5075870;28;20036;-79
2023/05/05 14:47:32;;;;;;;10.27;6.00;;;13.50;99.90;;;;;;5074472;28;20041;-79
2023/05/05 14:49:58;;;;;;;14.25;6.75;;;13.60;99.90;;;;;;5070182;28;20068;-79
2023/05/05 14:52:23;;;;;;;15.07;7.00;;;13.60;99.90;;;;;;5053753;28;20515;-78
2023/05/05 14:54:49;;;;;;;13.98;7.25;;;13.60;99.90;;;;;;5044754;28;20051;-81
2023/05/05 14:57:15;;;;;;;17.48;7.95;;;13.60;99.90;;;;;;5055553;28;20181;-80
2023/05/05 14:59:41;;;;;;;14.27;8.07;;;13.60;99.90;;;;;;5060140;28;20052;-80
2023/05/05 15:02:06;;;;;;;17.40;8.13;;;13.60;99.90;;;;;;5075309;28;20044;-81
2023/05/05 15:04:32;;;;;;;16.85;8.35;;;13.70;99.90;;;;;;5075660;28;20102;-79
2023/05/05 15:06:58;;;;;;;19.23;8.38;;;13.60;99.90;;;;;;5074084;28;20113;-80
2023/05/05 15:09:23;;;;;;;18.85;8.70;;;13.70;99.90;;;;;;5074672;28;20040;-80
2023/05/05 15:11:49;;;;;;;19.77;9.20;;;13.70;99.90;;;;;;5075441;28;20051;-80
2023/05/05 15:14:15;;;;;;;17.52;8.63;;;13.70;99.90;;;;;;5075090;28;20472;-81
2023/05/05 15:16:40;;;;;;;17.13;8.43;;;13.80;99.90;;;;;;5076870;28;20035;-81
2023/05/05 15:19:06;;;;;;;16.80;9.40;;;13.80;99.90;;;;;;5075056;28;20051;-80
2023/05/05 15:21:32;;;;;;;17.55;9.13;;;13.80;99.90;;;;;;5076769;28;20040;-80
2023/05/05 15:23:58;;;;;;;20.42;8.98;;;13.90;99.90;;;;;;5076152;28;20063;-80
2023/05/05 15:26:23;;;;;;;18.75;9.60;;;14.00;99.90;;;;;;5067744;28;20120;-81
2023/05/05 15:28:51;;;;;;;12.50;7.22;;;14.00;99.90;;;;;;5074363;28;20046;-81
2023/05/05 15:31:16;;;;;;;18.50;8.70;;;14.10;99.90;;;;;;5077385;28;20484;-82
2023/05/05 15:33:44;;;;;;;17.15;8.02;;;14.10;99.90;;;;;;5075075;28;20032;-81
2023/05/05 15:36:10;;;;;;;16.38;7.78;;;14.20;99.90;;;;;;5074905;28;20040;-81
2023/05/05 15:38:42;;;;;;;13.27;7.10;;;14.20;99.90;;;;;;5074724;28;20044;-80